Harrah, OK (73045)

11:09 PM CDT on August 27, 2014 (GMT -0500)
Fortelney | Change Station
CLOSE
Current Station
Personal Weather Station
Location: Harrah, OK
Elevation: 1037 ft
Nearby Weather Stations

Elev 1037 ft 35.57 °N, 97.17 °W | Updated 2 minutes ago

Clear
Clear
74.7 °F
Feels Like 74 °F
N
0.0
Wind Variable Wind from West

Today
High -- | Low -- °F
--% Chance of Precip.
Yesterday
High -- | Low -- °F
Precip. -- in
6:57 AM 8:02 PM
Waxing Crescent, 6% visible
Pressure 30.01 in
Visibility 10.0 miles
Clouds Clear
Heat Index 74 °F
Dew Point 70 °F
Humidity 85%
Rainfall 0.00 in
Snow Depth Not available.
UV 0 out of 12
Pollen 10.20 out of 12
Ozone Good
PM2.5 Moderate
Flu Activity Not available.
METAR KTIK 280358Z AUTO 14005KT 10SM CLR 27/19 A3003 RMK AO2 SLP160 T02670193 $

More Conditions Fewer Conditions

Pressure 30.01 in
Visibility 10.0 miles
Clouds Clear
Heat Index 74 °F
Dew Point 70 °F
Humidity 85%
Rainfall 0.00 in
Snow Depth Not available.
UV 0 out of 12
Pollen 10.20 out of 12
Ozone Good
PM2.5 Moderate
Flu Activity Not available.
METAR KTIK 280358Z AUTO 14005KT 10SM CLR 27/19 A3003 RMK AO2 SLP160 T02670193 $

More Conditions Fewer Conditions

10-Day Weather Forecast

Almanac

Astronomy

Aug. 27, 2014 Rise Set
Actual Time 6:57 AM CDT 8:02 PM CDT
Civil Twilight 6:30 AM CDT 8:28 PM CDT
Nautical Twilight 5:59 AM CDT 8:59 PM CDT
Astronomical Twilight 5:27 AM CDT 9:32 PM CDT
Moon 8:48 AM CDT (8/27) 9:01 PM CDT (8/27)
Length of Visible Light 13h 57m
Length of Day
13h 05m
Tomorrow will be 2m 7s shorter.
Waxing Crescent, 6% of the Moon is Illuminated
Aug 28
Waxing Crescent
Sep 2
First Quarter
Sep 8
Full
Sep 15
Last Quarter
Sep 24
New

Today's Extremes

State Highs State Lows

Community

WunderPhotos

Upload Photos

1,747,900 photos uploaded!

Nearby

Air Quality

  Air Quality AQ Index Pollutant
Yesterday Moderate
PM2.5
Yesterday Moderate
OZONE
Current Moderate
PM2.5
Current Good
OZONE
Wednesday Moderate
OZONE
Wednesday Good
PM2.5
Thursday Good
OZONE
Thursday Good
PM2.5
Friday Good
OZONE
Friday Good
PM2.5
Saturday Good
OZONE
Saturday Good
PM2.5
Sunday Good
OZONE
Sunday Good
PM2.5

Snow Depth

Station Depth Elevation
No new snow has been reported.

Earthquake Activity

City Distance Mag. Time & Date
Stillwater, Oklahoma 41 miles 3.1 10:44 AM CDT
2014-08-27
Guthrie, Oklahoma 26 miles 3.2 11:05 AM CDT
2014-08-26
Perry, Oklahoma 53 miles 2.5 8:07 AM CDT
2014-08-26
Medford, Oklahoma 101 miles 2.6 2:59 AM CDT
2014-08-26
Minimum magnitude displayed is 2.5.

Coastal Water Temperatures

Place Temperature
No Stations Reporting

Nearby Weather Stations